Time;durP1;ratioP1;P1;durP2;ratioP2;P2;SDS_P1;SDS_P2;PMS_P1;PMS_P2;Temp;Humidity;BMP_temperature;BMP_pressure;BME280_temperature;BME280_humidity;BME280_pressure;Samples;Min_cycle;Max_cycle;Signal;HPM_P1;HPM_P2
2023/05/24 00:00:43;;;;;;;9.43;4.28;;;10.90;99.90;;;;;;5077309;28;20032;-58
2023/05/24 00:03:08;;;;;;;9.80;3.80;;;10.90;99.90;;;;;;5078220;28;20036;-59
2023/05/24 00:05:39;;;;;;;17.90;4.07;;;10.90;99.90;;;;;;5078580;28;20024;-59
2023/05/24 00:08:05;;;;;;;8.63;3.50;;;10.80;99.90;;;;;;5077293;28;20055;-59
2023/05/24 00:10:31;;;;;;;10.38;3.92;;;10.80;99.90;;;;;;5075877;28;20066;-57
2023/05/24 00:12:56;;;;;;;7.68;4.00;;;10.80;99.90;;;;;;5073119;28;20036;-58
2023/05/24 00:15:22;;;;;;;10.80;4.43;;;10.80;99.90;;;;;;5078766;28;20543;-57
2023/05/24 00:17:48;;;;;;;8.27;3.55;;;10.80;99.90;;;;;;5060272;28;20032;-58
2023/05/24 00:20:13;;;;;;;8.38;4.00;;;10.80;99.90;;;;;;5077268;28;20016;-59
2023/05/24 00:22:40;;;;;;;11.02;4.47;;;10.80;99.90;;;;;;5081421;28;20020;-57
2023/05/24 00:25:06;;;;;;;12.70;4.25;;;10.80;99.90;;;;;;5079222;28;20043;-59
2023/05/24 00:27:32;;;;;;;12.25;3.90;;;10.80;99.90;;;;;;5080165;28;20036;-58
2023/05/24 00:29:58;;;;;;;9.38;3.70;;;10.80;99.90;;;;;;5077003;28;20023;-59
2023/05/24 00:32:23;;;;;;;11.52;4.00;;;10.80;99.90;;;;;;5077335;28;20521;-58
2023/05/24 00:34:49;;;;;;;13.93;4.10;;;10.80;99.90;;;;;;5076602;28;20020;-59
2023/05/24 00:37:15;;;;;;;9.90;3.75;;;10.80;99.90;;;;;;5077128;28;20042;-58
2023/05/24 00:39:40;;;;;;;10.45;4.35;;;10.80;99.90;;;;;;5077205;28;20477;-59
2023/05/24 00:42:06;;;;;;;10.50;3.70;;;10.80;99.90;;;;;;5077493;28;20028;-59
2023/05/24 00:44:32;;;;;;;16.30;4.43;;;10.80;99.90;;;;;;5076370;28;20453;-59
2023/05/24 00:46:57;;;;;;;6.88;3.45;;;10.80;99.90;;;;;;5073791;28;20016;-59
2023/05/24 00:49:23;;;;;;;10.75;5.00;;;10.70;99.90;;;;;;5076668;28;20025;-58
2023/05/24 00:51:51;;;;;;;10.40;4.80;;;10.80;99.90;;;;;;5076652;28;20065;-58
2023/05/24 00:54:17;;;;;;;5.35;3.60;;;10.70;99.90;;;;;;5075766;28;20031;-58
2023/05/24 00:56:43;;;;;;;6.10;3.20;;;10.70;99.90;;;;;;5083045;28;20395;-58
2023/05/24 00:59:08;;;;;;;12.02;3.78;;;10.70;99.90;;;;;;5075050;28;20428;-59
2023/05/24 01:01:36;;;;;;;15.63;4.05;;;10.70;99.90;;;;;;5075938;28;20522;-59
2023/05/24 01:04:02;;;;;;;11.20;3.92;;;10.70;99.90;;;;;;5076661;28;20025;-59
2023/05/24 01:06:28;;;;;;;6.32;3.20;;;10.70;99.90;;;;;;5073775;28;20024;-59
2023/05/24 01:08:59;;;;;;;15.07;4.40;;;10.70;99.90;;;;;;5076399;28;20058;-58
2023/05/24 01:11:26;;;;;;;9.88;4.35;;;10.70;99.90;;;;;;5075200;28;20078;-59
2023/05/24 01:14:03;;;;;;;11.07;3.53;;;10.70;99.90;;;;;;5077909;28;20033;-58
2023/05/24 01:16:57;;;;;;;8.43;3.42;;;10.70;99.90;;;;;;5078243;28;20039;-58
2023/05/24 01:19:35;;;;;;;8.07;3.78;;;10.70;99.90;;;;;;5030620;28;20033;-59
2023/05/24 01:22:12;;;;;;;8.75;3.97;;;10.70;99.90;;;;;;5077016;28;20035;-57
2023/05/24 01:24:57;;;;;;;7.60;3.35;;;10.70;99.90;;;;;;5074819;28;20033;-59
2023/05/24 01:27:23;;;;;;;9.20;3.45;;;10.70;99.90;;;;;;5076360;28;20032;-58
2023/05/24 01:29:52;;;;;;;10.98;3.95;;;10.70;99.90;;;;;;5075094;28;20115;-57
2023/05/24 01:32:21;;;;;;;8.95;3.42;;;10.70;99.90;;;;;;5076013;28;20032;-58
2023/05/24 01:34:47;;;;;;;7.88;3.28;;;10.70;99.90;;;;;;5076330;28;20382;-59
2023/05/24 01:37:13;;;;;;;10.93;5.00;;;10.60;99.90;;;;;;5079281;28;20020;-58
2023/05/24 01:39:39;;;;;;;7.95;2.92;;;10.60;99.90;;;;;;5075466;28;20594;-59
2023/05/24 01:42:49;;;;;;;14.45;3.65;;;10.60;99.90;;;;;;5075312;28;20535;-59
2023/05/24 01:45:21;;;;;;;13.63;3.40;;;10.60;99.90;;;;;;5004477;28;20022;-59
2023/05/24 01:48:17;;;;;;;19.98;4.25;;;10.60;99.90;;;;;;5064040;28;20063;-58
2023/05/24 01:50:51;;;;;;;8.27;3.50;;;10.60;99.90;;;;;;5071210;28;20070;-58
2023/05/24 01:53:19;;;;;;;9.93;3.75;;;10.60;99.90;;;;;;5075759;28;20032;-57
2023/05/24 01:55:47;;;;;;;12.98;3.55;;;10.60;99.90;;;;;;5076665;28;20465;-59
2023/05/24 01:58:15;;;;;;;11.65;3.05;;;10.50;99.90;;;;;;5076960;28;20024;-59
2023/05/24 02:00:43;;;;;;;10.13;2.83;;;10.50;99.90;;;;;;5061284;28;20028;-59
2023/05/24 02:03:09;;;;;;;8.40;3.25;;;10.40;99.90;;;;;;5058900;28;20024;-59
2023/05/24 02:05:35;;;;;;;7.47;3.15;;;10.50;99.90;;;;;;5073476;28;20120;-58
2023/05/24 02:08:00;;;;;;;7.45;3.08;;;10.50;99.90;;;;;;5073181;28;20115;-59
2023/05/24 02:10:26;;;;;;;9.48;3.63;;;10.50;99.90;;;;;;5076865;28;20111;-57
2023/05/24 02:12:52;;;;;;;9.40;2.70;;;10.40;99.90;;;;;;5074611;28;20032;-59
2023/05/24 02:15:17;;;;;;;13.80;2.97;;;10.40;99.90;;;;;;5078702;28;20036;-60
2023/05/24 02:17:44;;;;;;;6.88;3.33;;;10.40;99.90;;;;;;5075872;28;20052;-57
2023/05/24 02:20:12;;;;;;;11.70;3.03;;;10.40;99.90;;;;;;5074762;28;20662;-59
2023/05/24 02:22:37;;;;;;;6.43;2.67;;;10.40;99.90;;;;;;5078038;28;20028;-60
2023/05/24 02:25:03;;;;;;;11.82;3.83;;;10.30;99.90;;;;;;5080273;28;20028;-59
2023/05/24 02:27:29;;;;;;;10.80;3.47;;;10.30;99.90;;;;;;5079300;28;20100;-58
2023/05/24 02:29:56;;;;;;;12.05;2.95;;;10.30;99.90;;;;;;5077806;28;20052;-59
2023/05/24 02:32:21;;;;;;;21.60;3.08;;;10.30;99.90;;;;;;5081097;28;20024;-58
2023/05/24 02:34:47;;;;;;;10.93;2.92;;;10.20;99.90;;;;;;5077890;28;20023;-59
2023/05/24 02:37:13;;;;;;;9.32;3.13;;;10.20;99.90;;;;;;5080577;28;20488;-59
2023/05/24 02:39:42;;;;;;;14.07;3.33;;;10.20;99.90;;;;;;5079865;28;20036;-59
2023/05/24 02:42:08;;;;;;;9.93;3.28;;;10.10;99.90;;;;;;5077892;28;20032;-59
2023/05/24 02:44:34;;;;;;;15.32;3.28;;;10.10;99.90;;;;;;5077521;28;20054;-58
2023/05/24 02:47:00;;;;;;;11.45;3.65;;;10.10;99.90;;;;;;5076839;28;20579;-59
2023/05/24 02:49:25;;;;;;;20.20;4.22;;;10.10;99.90;;;;;;5078695;28;20496;-59
2023/05/24 02:51:51;;;;;;;6.60;2.33;;;10.10;99.90;;;;;;5077407;28;20044;-58
2023/05/24 02:54:17;;;;;;;6.75;3.03;;;10.00;99.90;;;;;;5080821;28;20025;-59
2023/05/24 02:56:43;;;;;;;12.45;2.67;;;10.00;99.90;;;;;;5080426;28;20086;-59
2023/05/24 02:59:08;;;;;;;14.70;3.20;;;10.00;99.90;;;;;;5076904;28;20392;-58
2023/05/24 03:01:34;;;;;;;5.57;3.03;;;10.00;99.90;;;;;;5080948;28;20035;-58
2023/05/24 03:04:00;;;;;;;7.40;2.72;;;10.00;99.90;;;;;;5079540;28;20036;-57
2023/05/24 03:06:25;;;;;;;6.78;3.63;;;10.00;99.90;;;;;;5082142;28;20721;-57
2023/05/24 03:08:51;;;;;;;7.55;2.88;;;10.00;99.90;;;;;;5080646;28;20036;-58
2023/05/24 03:11:20;;;;;;;13.50;2.78;;;10.00;99.90;;;;;;5080613;28;20028;-59
2023/05/24 03:13:47;;;;;;;8.32;3.28;;;10.00;99.90;;;;;;5080050;28;20028;-59
2023/05/24 03:16:12;;;;;;;13.95;4.13;;;9.90;99.90;;;;;;5080610;28;20024;-59
2023/05/24 03:18:38;;;;;;;15.02;3.15;;;9.90;99.90;;;;;;5076544;28;20039;-59
2023/05/24 03:21:04;;;;;;;8.88;2.95;;;9.90;99.90;;;;;;5077925;28;20024;-58
2023/05/24 03:23:29;;;;;;;8.55;3.10;;;9.90;99.90;;;;;;5075287;28;20139;-58
2023/05/24 03:25:55;;;;;;;8.13;3.60;;;9.80;99.90;;;;;;5076913;28;20099;-59
2023/05/24 03:28:21;;;;;;;10.05;3.60;;;9.80;99.90;;;;;;5082973;28;20157;-59
2023/05/24 03:30:47;;;;;;;13.25;3.28;;;9.90;99.90;;;;;;5076860;28;20552;-59
2023/05/24 03:33:13;;;;;;;7.38;3.13;;;9.90;99.90;;;;;;5078079;28;20166;-59
2023/05/24 03:35:38;;;;;;;9.13;2.83;;;9.80;99.90;;;;;;5078884;28;20441;-59
2023/05/24 03:38:04;;;;;;;7.43;2.85;;;9.80;99.90;;;;;;5075721;28;20028;-58
2023/05/24 03:40:32;;;;;;;9.10;2.97;;;9.80;99.90;;;;;;5079479;28;20165;-58
2023/05/24 03:42:58;;;;;;;8.20;2.53;;;9.80;99.90;;;;;;5077756;28;20437;-58
2023/05/24 03:45:23;;;;;;;10.27;2.67;;;9.70;99.90;;;;;;5081740;28;20050;-58
2023/05/24 03:47:49;;;;;;;8.75;2.90;;;9.70;99.90;;;;;;5079431;28;20492;-58
2023/05/24 03:50:15;;;;;;;15.90;3.00;;;9.70;99.90;;;;;;5076929;28;20031;-58
2023/05/24 03:52:41;;;;;;;11.95;3.00;;;9.70;99.90;;;;;;5083548;28;20107;-59
2023/05/24 03:55:07;;;;;;;6.53;2.95;;;9.70;99.90;;;;;;5079715;28;20047;-58
2023/05/24 03:57:33;;;;;;;9.85;3.05;;;9.70;99.90;;;;;;5076139;28;20582;-58
2023/05/24 03:59:59;;;;;;;11.07;2.70;;;9.70;99.90;;;;;;5076383;28;20028;-59
2023/05/24 04:02:25;;;;;;;8.30;2.58;;;9.60;99.90;;;;;;5080017;28;20103;-59
2023/05/24 04:04:51;;;;;;;10.20;2.97;;;9.60;99.90;;;;;;5077443;28;20114;-58
2023/05/24 04:07:17;;;;;;;9.93;3.30;;;9.60;99.90;;;;;;5075940;28;20855;-59
2023/05/24 04:09:42;;;;;;;8.98;2.97;;;9.60;99.90;;;;;;5079365;28;20032;-58
2023/05/24 04:12:08;;;;;;;14.32;3.38;;;9.60;99.90;;;;;;5063779;28;20032;-59
2023/05/24 04:14:34;;;;;;;9.25;3.35;;;9.60;99.90;;;;;;5070852;28;20519;-59
2023/05/24 04:17:03;;;;;;;9.38;2.95;;;9.70;99.90;;;;;;5055958;28;20128;-59
2023/05/24 04:19:28;;;;;;;8.40;3.22;;;9.70;99.90;;;;;;5046708;28;20393;-59
2023/05/24 04:21:54;;;;;;;13.15;2.60;;;9.70;99.90;;;;;;5072389;28;20028;-59
2023/05/24 04:24:20;;;;;;;8.43;3.30;;;9.80;99.90;;;;;;5037062;28;20071;-57
2023/05/24 04:26:46;;;;;;;9.93;3.38;;;9.80;99.90;;;;;;5040964;28;20509;-59
2023/05/24 04:29:13;;;;;;;6.68;2.95;;;9.80;99.90;;;;;;5057217;28;20121;-58
2023/05/24 04:31:42;;;;;;;8.65;2.38;;;9.80;99.90;;;;;;5060459;28;20024;-57
2023/05/24 04:34:08;;;;;;;11.20;2.88;;;9.80;99.90;;;;;;5079106;28;20463;-59
2023/05/24 04:36:34;;;;;;;12.05;2.67;;;9.70;99.90;;;;;;5074865;28;20053;-59
2023/05/24 04:39:03;;;;;;;13.15;2.92;;;9.70;99.90;;;;;;5077312;28;20032;-58
2023/05/24 04:41:34;;;;;;;8.38;2.35;;;9.70;99.90;;;;;;5074431;28;20070;-59
2023/05/24 04:43:59;;;;;;;14.00;3.70;;;9.80;99.90;;;;;;5078179;28;20044;-59
2023/05/24 04:46:28;;;;;;;15.43;2.85;;;9.80;99.90;;;;;;5077748;28;20627;-59
2023/05/24 04:48:54;;;;;;;15.82;3.25;;;9.80;99.90;;;;;;5079840;28;20747;-58
2023/05/24 04:51:23;;;;;;;10.05;2.75;;;9.90;99.90;;;;;;5078896;28;20031;-57
2023/05/24 04:53:48;;;;;;;9.68;3.53;;;9.90;99.90;;;;;;5077900;28;20063;-59
2023/05/24 04:56:15;;;;;;;13.43;3.65;;;10.00;99.90;;;;;;5077820;28;20492;-59
2023/05/24 04:58:41;;;;;;;9.60;2.47;;;10.00;99.90;;;;;;5076814;28;20039;-57
2023/05/24 05:01:07;;;;;;;14.05;2.92;;;10.10;99.90;;;;;;5073845;28;20037;-58
2023/05/24 05:03:33;;;;;;;7.70;2.58;;;10.10;99.90;;;;;;5075904;28;20082;-58
2023/05/24 05:05:58;;;;;;;7.57;3.10;;;10.10;99.90;;;;;;5074570;28;20028;-58
2023/05/24 05:08:24;;;;;;;14.30;2.85;;;10.20;99.90;;;;;;5072311;28;20089;-57
2023/05/24 05:10:50;;;;;;;6.95;2.22;;;10.20;99.90;;;;;;5076703;28;20032;-58
2023/05/24 05:13:15;;;;;;;8.32;2.92;;;10.30;99.90;;;;;;5078573;28;20020;-59
2023/05/24 05:15:41;;;;;;;10.43;2.85;;;10.30;99.90;;;;;;5076765;28;20033;-58
2023/05/24 05:18:07;;;;;;;10.38;2.95;;;10.40;99.90;;;;;;5077063;28;20834;-57
2023/05/24 05:20:33;;;;;;;11.63;3.35;;;10.40;99.90;;;;;;5075537;28;20040;-58
2023/05/24 05:22:58;;;;;;;7.70;2.50;;;10.30;99.90;;;;;;5076095;28;20099;-59
2023/05/24 05:25:24;;;;;;;14.18;3.03;;;10.30;99.90;;;;;;5078286;28;20039;-58
2023/05/24 05:27:50;;;;;;;8.55;2.63;;;10.30;99.90;;;;;;5074076;28;20071;-61
2023/05/24 05:30:15;;;;;;;13.77;3.63;;;10.30;99.90;;;;;;5075815;28;20020;-59
2023/05/24 05:32:41;;;;;;;9.18;3.03;;;10.20;99.90;;;;;;5073124;28;20056;-60
2023/05/24 05:35:07;;;;;;;11.38;2.50;;;10.20;99.90;;;;;;5077643;28;20115;-59
2023/05/24 05:37:33;;;;;;;10.32;3.13;;;10.30;99.90;;;;;;5078905;28;20463;-59
2023/05/24 05:39:58;;;;;;;8.32;3.28;;;10.30;99.90;;;;;;5081407;28;20051;-59
2023/05/24 05:42:24;;;;;;;11.60;3.35;;;10.40;99.90;;;;;;5074846;28;20024;-58
2023/05/24 05:44:51;;;;;;;8.82;3.60;;;10.50;99.90;;;;;;5062376;28;20036;-58
2023/05/24 05:47:16;;;;;;;12.88;3.20;;;10.60;99.90;;;;;;5070358;28;20119;-59
2023/05/24 05:49:42;;;;;;;14.60;3.88;;;10.60;99.90;;;;;;5059784;28;20027;-59
2023/05/24 05:52:08;;;;;;;10.13;3.40;;;10.70;99.90;;;;;;5057531;28;20021;-58
2023/05/24 05:54:34;;;;;;;13.50;3.50;;;10.70;99.90;;;;;;5075786;28;20020;-59
2023/05/24 05:56:59;;;;;;;12.77;3.15;;;10.90;99.90;;;;;;5076529;28;20536;-59
2023/05/24 05:59:25;;;;;;;10.52;2.75;;;10.90;99.90;;;;;;5077902;28;20078;-58
2023/05/24 06:01:51;;;;;;;12.82;3.10;;;11.00;99.90;;;;;;5078045;28;20039;-58
2023/05/24 06:04:17;;;;;;;6.75;2.70;;;11.10;99.90;;;;;;5078998;28;20016;-59
2023/05/24 06:06:48;;;;;;;11.50;2.97;;;11.10;99.90;;;;;;5078417;28;20027;-60
2023/05/24 06:09:14;;;;;;;;;;;11.20;99.90;;;;;;5078352;28;20024;-59
2023/05/24 06:11:43;;;;;;;8.80;3.42;;;11.30;99.90;;;;;;5077145;28;19965;-58
2023/05/24 06:14:10;;;;;;;12.52;2.72;;;11.30;99.90;;;;;;5078613;28;20111;-58
2023/05/24 06:16:40;;;;;;;10.07;3.65;;;11.30;99.90;;;;;;5080742;28;20505;-58
2023/05/24 06:19:06;;;;;;;8.85;2.90;;;11.30;99.90;;;;;;5079208;28;20040;-60
2023/05/24 06:21:32;;;;;;;6.18;2.70;;;11.30;99.90;;;;;;5079480;28;20032;-58
2023/05/24 06:23:58;;;;;;;5.63;3.17;;;11.20;99.90;;;;;;5075664;28;20031;-59
2023/05/24 06:26:25;;;;;;;8.82;2.42;;;11.20;99.90;;;;;;5076636;28;20021;-58
2023/05/24 06:28:51;;;;;;;11.23;3.38;;;11.20;99.90;;;;;;5078448;28;20036;-59
2023/05/24 06:31:17;;;;;;;7.85;3.13;;;11.30;99.90;;;;;;5078853;28;20085;-59
2023/05/24 06:33:43;;;;;;;9.32;3.15;;;11.40;99.90;;;;;;5059831;28;20052;-58
2023/05/24 06:36:09;;;;;;;8.10;2.50;;;11.50;99.90;;;;;;5059262;28;20028;-59
2023/05/24 06:38:35;;;;;;;8.18;2.95;;;11.70;99.90;;;;;;5041823;28;20032;-59
2023/05/24 06:41:01;;;;;;;19.80;3.05;;;11.90;99.90;;;;;;5077282;28;20032;-59
2023/05/24 06:43:26;;;;;;;10.60;3.17;;;12.00;99.90;;;;;;5080799;28;20396;-58
2023/05/24 06:45:52;;;;;;;6.05;2.30;;;12.10;99.90;;;;;;5077588;28;20029;-58
2023/05/24 06:48:17;;;;;;;12.80;3.33;;;12.20;99.90;;;;;;5078672;28;20029;-57
2023/05/24 06:50:44;;;;;;;10.80;2.95;;;12.20;99.90;;;;;;5079942;28;20032;-58
2023/05/24 06:53:10;;;;;;;8.50;3.40;;;12.20;99.90;;;;;;5078877;28;20690;-58
2023/05/24 06:55:36;;;;;;;9.80;2.97;;;12.20;99.90;;;;;;5077724;28;20042;-58
2023/05/24 06:58:02;;;;;;;10.88;2.75;;;12.20;99.90;;;;;;5078087;28;20043;-58
2023/05/24 07:00:27;;;;;;;7.60;2.70;;;12.20;99.90;;;;;;5079373;28;20032;-59
2023/05/24 07:02:53;;;;;;;11.32;3.50;;;12.20;99.90;;;;;;5077563;28;20024;-58
2023/05/24 07:05:19;;;;;;;8.25;2.65;;;12.20;99.90;;;;;;5077479;28;20603;-59
2023/05/24 07:07:44;;;;;;;11.93;2.83;;;12.20;99.90;;;;;;5076157;28;20039;-59
2023/05/24 07:10:11;;;;;;;8.18;2.90;;;12.20;99.90;;;;;;5079761;28;20374;-58
2023/05/24 07:12:37;;;;;;;5.75;2.75;;;12.10;99.90;;;;;;5078543;28;20032;-59
2023/05/24 07:15:04;;;;;;;11.05;2.67;;;12.10;99.90;;;;;;5084082;28;20599;-58
2023/05/24 07:17:30;;;;;;;9.57;3.30;;;11.90;99.90;;;;;;5075542;28;20025;-59
2023/05/24 07:19:56;;;;;;;10.20;3.80;;;11.80;99.90;;;;;;5057734;28;20034;-59
2023/05/24 07:22:24;;;;;;;10.07;4.53;;;11.70;99.90;;;;;;5059326;28;20044;-58
2023/05/24 07:24:50;;;;;;;11.07;5.72;;;11.60;99.90;;;;;;5057291;28;20116;-59
2023/05/24 07:27:15;;;;;;;9.98;5.28;;;11.60;99.90;;;;;;5059495;28;20135;-59
2023/05/24 07:29:41;;;;;;;10.77;4.93;;;11.70;99.90;;;;;;5058899;28;20075;-60
2023/05/24 07:32:07;;;;;;;12.60;5.00;;;11.70;99.90;;;;;;5053775;28;20036;-61
2023/05/24 07:34:33;;;;;;;13.45;6.20;;;11.70;99.90;;;;;;5060312;28;20163;-60
2023/05/24 07:37:00;;;;;;;9.52;5.70;;;11.70;99.90;;;;;;5056667;28;20020;-61
2023/05/24 07:39:26;;;;;;;11.95;6.03;;;11.80;99.90;;;;;;5056871;28;20079;-60
2023/05/24 07:41:54;;;;;;;9.27;5.90;;;12.00;99.90;;;;;;5056537;28;20064;-60
2023/05/24 07:44:20;;;;;;;9.18;4.88;;;12.20;99.90;;;;;;5056956;28;20368;-61
2023/05/24 07:46:45;;;;;;;10.88;5.57;;;12.40;99.90;;;;;;5055506;28;20017;-62
2023/05/24 07:49:11;;;;;;;11.02;5.95;;;12.50;99.90;;;;;;5060595;28;20025;-61
2023/05/24 07:51:37;;;;;;;13.57;5.60;;;12.70;99.90;;;;;;5056726;28;20115;-61
2023/05/24 07:54:03;;;;;;;8.20;5.47;;;12.90;98.80;;;;;;5056902;28;20805;-60
2023/05/24 07:56:29;;;;;;;12.65;4.20;;;13.00;97.10;;;;;;5057009;28;20100;-60
2023/05/24 07:59:04;;;;;;;9.38;4.25;;;13.10;97.00;;;;;;5056389;28;20805;-60
2023/05/24 08:01:33;;;;;;;15.02;5.22;;;13.20;98.90;;;;;;5059391;28;20609;-60
2023/05/24 08:03:59;;;;;;;10.85;5.55;;;13.30;99.50;;;;;;5055693;28;20037;-61
2023/05/24 08:06:24;;;;;;;10.10;4.85;;;13.40;98.10;;;;;;5056624;28;20031;-60
2023/05/24 08:08:50;;;;;;;9.15;5.35;;;13.50;96.10;;;;;;5060810;28;20047;-61
2023/05/24 08:11:16;;;;;;;8.88;5.45;;;13.60;95.90;;;;;;5055181;28;20045;-61
2023/05/24 08:13:43;;;;;;;10.93;5.13;;;13.70;94.40;;;;;;5056624;28;20084;-62
2023/05/24 08:16:08;;;;;;;10.45;6.47;;;13.60;93.60;;;;;;5059072;28;20031;-60
2023/05/24 08:18:34;;;;;;;13.52;6.65;;;13.40;97.20;;;;;;5057790;28;20033;-59
2023/05/24 08:21:01;;;;;;;37.92;7.00;;;13.30;94.00;;;;;;5058473;28;20060;-61
2023/05/24 08:23:28;;;;;;;15.40;5.57;;;13.30;97.00;;;;;;5057862;28;20032;-60
2023/05/24 08:25:55;;;;;;;7.82;5.03;;;13.30;95.80;;;;;;5060555;28;20024;-60
2023/05/24 08:28:21;;;;;;;10.55;5.97;;;13.30;96.40;;;;;;5055548;28;20116;-60
2023/05/24 08:30:47;;;;;;;9.43;5.78;;;13.40;97.70;;;;;;5055868;28;20044;-61
2023/05/24 08:33:12;;;;;;;6.03;4.60;;;13.50;96.80;;;;;;5056213;28;20028;-60
2023/05/24 08:35:38;;;;;;;9.10;5.32;;;13.60;92.40;;;;;;5058411;28;20433;-60
2023/05/24 08:38:04;;;;;;;17.13;5.60;;;13.50;94.60;;;;;;5056794;28;20048;-60
2023/05/24 08:40:30;;;;;;;9.70;5.20;;;13.60;91.50;;;;;;5057478;28;20024;-60
2023/05/24 08:43:00;;;;;;;12.27;4.63;;;13.60;93.90;;;;;;5055111;28;20029;-60
2023/05/24 08:45:28;;;;;;;8.32;4.80;;;13.60;92.80;;;;;;5056169;28;20025;-61
2023/05/24 08:47:55;;;;;;;8.18;5.10;;;13.60;94.30;;;;;;5062160;28;20025;-60
2023/05/24 08:50:21;;;;;;;14.27;5.88;;;13.70;94.80;;;;;;5070909;28;20453;-61
2023/05/24 08:52:47;;;;;;;14.07;6.20;;;13.80;94.60;;;;;;5061633;28;20190;-61
2023/05/24 08:55:14;;;;;;;13.52;5.50;;;14.00;94.30;;;;;;5061739;28;20040;-61
2023/05/24 08:57:40;;;;;;;9.95;5.10;;;14.20;93.40;;;;;;5074451;28;20121;-62
2023/05/24 09:00:10;;;;;;;13.25;4.57;;;14.40;91.50;;;;;;5063908;28;20139;-62
2023/05/24 09:02:39;;;;;;;11.57;4.57;;;14.70;92.40;;;;;;5076646;28;20036;-61
2023/05/24 09:05:10;;;;;;;10.55;4.50;;;14.90;89.40;;;;;;5077426;28;20033;-60
2023/05/24 09:07:36;;;;;;;9.68;4.20;;;15.00;90.50;;;;;;5077239;28;20027;-60
2023/05/24 09:10:07;;;;;;;6.95;4.75;;;15.10;90.20;;;;;;5078808;28;20071;-61
2023/05/24 09:12:35;;;;;;;6.50;3.90;;;15.20;87.40;;;;;;5081161;28;20085;-61
2023/05/24 09:15:01;;;;;;;10.23;4.22;;;15.20;86.60;;;;;;5077981;28;20044;-61
2023/05/24 09:17:29;;;;;;;7.05;3.83;;;15.40;87.60;;;;;;5081825;28;20020;-62
2023/05/24 09:19:57;;;;;;;5.38;3.85;;;15.70;90.40;;;;;;5079523;28;20024;-61
2023/05/24 09:22:25;;;;;;;10.75;5.28;;;15.90;88.30;;;;;;5079091;28;20197;-62
2023/05/24 09:24:51;;;;;;;7.97;3.78;;;16.00;87.20;;;;;;5079044;28;20020;-59
2023/05/24 09:27:20;;;;;;;7.63;4.18;;;16.20;87.70;;;;;;5078502;28;20106;-58
2023/05/24 09:29:48;;;;;;;8.25;4.38;;;16.20;81.30;;;;;;5078742;28;20017;-59
2023/05/24 09:32:14;;;;;;;6.82;4.20;;;16.10;77.90;;;;;;5079018;28;20016;-62
2023/05/24 09:34:41;;;;;;;5.82;3.28;;;16.10;81.90;;;;;;5078089;28;20209;-58
2023/05/24 09:37:15;;;;;;;7.65;3.50;;;16.30;79.50;;;;;;5060082;28;20058;-60
2023/05/24 09:39:46;;;;;;;8.40;4.00;;;16.50;82.20;;;;;;5073378;28;20073;-59
2023/05/24 09:42:16;;;;;;;;;;;16.60;78.80;;;;;;5075032;28;20032;-59
2023/05/24 09:44:43;;;;;;;10.55;3.50;;;16.70;82.90;;;;;;5057273;28;19908;-59
2023/05/24 09:47:08;;;;;;;9.48;3.55;;;16.90;75.30;;;;;;5074457;28;20067;-60
2023/05/24 09:49:37;;;;;;;9.52;4.05;;;16.80;80.00;;;;;;5073224;28;20052;-60
2023/05/24 09:52:04;;;;;;;8.13;3.97;;;16.80;78.50;;;;;;5075429;28;20311;-59
2023/05/24 09:54:31;;;;;;;14.07;3.88;;;16.90;80.80;;;;;;5074124;28;20116;-60
2023/05/24 09:57:00;;;;;;;5.95;3.63;;;17.10;76.30;;;;;;5078380;28;20081;-59
2023/05/24 09:59:27;;;;;;;7.85;3.88;;;17.30;77.70;;;;;;5075667;28;20715;-59
2023/05/24 10:02:06;;;;;;;7.90;3.30;;;17.50;73.30;;;;;;5076367;28;20060;-60
2023/05/24 10:04:33;;;;;;;6.25;3.30;;;17.60;75.20;;;;;;5076086;28;20112;-59
2023/05/24 10:07:01;;;;;;;6.45;3.28;;;17.80;70.40;;;;;;5074630;28;20098;-60
2023/05/24 10:09:32;;;;;;;7.75;3.53;;;17.80;71.20;;;;;;5076051;28;20035;-59
2023/05/24 10:12:06;;;;;;;7.25;3.47;;;17.80;73.80;;;;;;5077376;28;20052;-59
2023/05/24 10:14:36;;;;;;;5.88;2.72;;;17.80;75.40;;;;;;5077603;28;20036;-60
2023/05/24 10:17:06;;;;;;;8.85;3.10;;;17.90;73.40;;;;;;5073490;28;20033;-59
2023/05/24 10:19:36;;;;;;;10.52;3.40;;;17.80;74.10;;;;;;5071438;28;20098;-59
2023/05/24 10:22:06;;;;;;;9.07;3.33;;;17.60;70.20;;;;;;5078009;28;20025;-58
2023/05/24 10:24:37;;;;;;;5.53;3.92;;;17.50;75.60;;;;;;5076193;28;20056;-59
2023/05/24 10:27:06;;;;;;;;;;;17.40;78.40;;;;;;5072174;28;20033;-56
2023/05/24 10:30:00;;;;;;;6.25;3.33;;;17.40;73.20;;;;;;5075521;28;19956;-60
2023/05/24 10:32:30;;;;;;;8.55;3.15;;;17.60;75.40;;;;;;5074470;28;20036;-57
2023/05/24 10:34:58;;;;;;;10.20;3.25;;;17.80;70.30;;;;;;5077308;28;20665;-61
2023/05/24 10:37:25;;;;;;;7.97;3.10;;;17.80;70.50;;;;;;5077159;28;20028;-60
2023/05/24 10:39:51;;;;;;;7.57;2.95;;;17.70;72.20;;;;;;5079067;28;20575;-60
2023/05/24 10:42:16;;;;;;;7.90;3.28;;;17.60;69.50;;;;;;5047369;28;20189;-59
2023/05/24 10:44:42;;;;;;;7.50;3.30;;;17.50;68.50;;;;;;5058031;28;20077;-60
2023/05/24 10:47:12;;;;;;;5.60;2.63;;;17.30;67.10;;;;;;5046827;28;20198;-60
2023/05/24 10:49:51;;;;;;;9.25;3.55;;;17.00;70.80;;;;;;5081262;28;20043;-58
2023/05/24 10:52:17;;;;;;;4.90;2.47;;;16.90;71.00;;;;;;5080568;28;20459;-60
2023/05/24 10:55:06;;;;;;;5.22;2.60;;;16.80;68.80;;;;;;5060428;28;20028;-58
2023/05/24 10:57:32;;;;;;;6.63;3.13;;;16.70;70.10;;;;;;5079433;28;20075;-58
2023/05/24 11:00:24;;;;;;;10.40;2.90;;;16.70;68.90;;;;;;5060287;28;20056;-60
2023/05/24 11:03:02;;;;;;;;;;;16.60;76.00;;;;;;5078256;28;20024;-60
2023/05/24 11:05:46;;;;;;;8.30;2.75;;;16.60;70.90;;;;;;5076456;28;19909;-59
2023/05/24 11:08:12;;;;;;;8.10;3.30;;;16.70;68.50;;;;;;5076750;28;20047;-58
2023/05/24 11:10:38;;;;;;;6.75;2.42;;;16.60;70.20;;;;;;5077059;28;20032;-59
2023/05/24 11:13:07;;;;;;;11.35;2.90;;;16.50;73.20;;;;;;5079485;28;20090;-58
2023/05/24 11:15:34;;;;;;;5.00;2.60;;;16.40;70.00;;;;;;5078371;28;20032;-57
2023/05/24 11:18:08;;;;;;;6.20;2.63;;;16.60;71.40;;;;;;5077777;28;20024;-57
2023/05/24 11:20:34;;;;;;;7.93;3.03;;;16.80;69.60;;;;;;5076129;28;20081;-58
2023/05/24 11:23:05;;;;;;;6.35;2.85;;;16.90;69.40;;;;;;5078302;28;20116;-58
2023/05/24 11:25:32;;;;;;;11.98;3.30;;;17.00;71.60;;;;;;5078322;28;20047;-59
2023/05/24 11:28:00;;;;;;;5.18;3.40;;;17.10;69.70;;;;;;5075375;28;20580;-58
2023/05/24 11:30:26;;;;;;;7.45;2.92;;;17.00;67.80;;;;;;5077573;28;20477;-58
2023/05/24 11:32:51;;;;;;;13.20;2.85;;;17.00;71.50;;;;;;5076380;28;20039;-59
2023/05/24 11:35:21;;;;;;;9.93;3.33;;;16.80;70.70;;;;;;5076751;28;20599;-59
2023/05/24 11:37:47;;;;;;;6.20;3.27;;;16.60;76.70;;;;;;5077086;28;20028;-59
2023/05/24 11:40:15;;;;;;;8.55;3.35;;;16.70;72.50;;;;;;5081888;28;20016;-59
2023/05/24 11:42:41;;;;;;;8.40;2.78;;;16.70;74.40;;;;;;5080474;28;20047;-58
2023/05/24 11:45:09;;;;;;;7.50;3.05;;;16.70;78.10;;;;;;5075154;28;20024;-59
2023/05/24 11:47:37;;;;;;;7.15;2.83;;;16.70;77.90;;;;;;5080412;28;20043;-58
2023/05/24 11:50:04;;;;;;;11.80;2.72;;;16.80;73.10;;;;;;5076483;28;20024;-58
2023/05/24 11:52:30;;;;;;;7.38;2.90;;;16.80;72.10;;;;;;5079213;28;20439;-58
2023/05/24 11:54:55;;;;;;;5.30;2.30;;;16.70;76.40;;;;;;5077496;28;20074;-58
2023/05/24 11:57:29;;;;;;;4.47;2.40;;;16.80;73.60;;;;;;5080737;28;20396;-60
2023/05/24 11:59:56;;;;;;;7.20;2.13;;;17.00;72.60;;;;;;5077537;28;20016;-57
2023/05/24 12:02:22;;;;;;;7.85;3.00;;;17.20;73.70;;;;;;5064323;28;20496;-58
2023/05/24 12:04:48;;;;;;;5.35;2.28;;;17.20;71.40;;;;;;5078183;28;20035;-58
2023/05/24 12:07:15;;;;;;;6.68;2.42;;;17.40;73.00;;;;;;5075953;28;20024;-59
2023/05/24 12:09:41;;;;;;;6.13;2.60;;;17.40;73.20;;;;;;5076945;28;20104;-58
2023/05/24 12:12:06;;;;;;;5.20;2.47;;;17.60;68.70;;;;;;5079002;28;20083;-58
2023/05/24 12:14:34;;;;;;;6.80;2.10;;;17.70;68.80;;;;;;5063569;28;20055;-60
2023/05/24 12:17:00;;;;;;;6.53;2.15;;;17.80;69.30;;;;;;5078096;28;20076;-59
2023/05/24 12:19:33;;;;;;;5.05;1.98;;;18.10;71.00;;;;;;5078370;28;20065;-59
2023/05/24 12:21:59;;;;;;;5.97;2.38;;;18.30;66.70;;;;;;5077717;28;20039;-58
2023/05/24 12:24:26;;;;;;;4.88;1.63;;;18.60;66.30;;;;;;5077893;28;20047;-60
2023/05/24 12:26:58;;;;;;;5.65;1.60;;;18.70;70.60;;;;;;5082604;28;20051;-60
2023/05/24 12:29:24;;;;;;;4.55;1.77;;;18.90;65.00;;;;;;5075112;28;20029;-59
2023/05/24 12:31:50;;;;;;;6.75;2.08;;;19.10;65.10;;;;;;5077284;28;20024;-58
2023/05/24 12:34:18;;;;;;;5.68;1.75;;;19.10;60.60;;;;;;5079779;28;20099;-60
2023/05/24 12:36:45;;;;;;;6.03;2.33;;;18.90;59.40;;;;;;5075874;28;20032;-59
2023/05/24 12:39:21;;;;;;;4.35;1.90;;;18.40;62.70;;;;;;5077536;28;20025;-58
2023/05/24 12:41:51;;;;;;;6.13;1.95;;;18.10;60.10;;;;;;5077747;28;20028;-58
2023/05/24 12:44:20;;;;;;;6.03;2.17;;;17.90;63.60;;;;;;5076670;28;20051;-60
2023/05/24 12:46:45;;;;;;;4.65;1.70;;;17.90;60.40;;;;;;5078047;28;20034;-59